sensor_id;sensor_type;location;lat;lon;timestamp;P1;durP1;ratioP1;P2;durP2;ratioP2
20844;SDS011;10583;49.084;8.646;2023-05-21T00:00:05;17.80;;;17.70;;
20844;SDS011;10583;49.084;8.646;2023-05-21T00:02:36;17.57;;;17.47;;
20844;SDS011;10583;49.084;8.646;2023-05-21T00:05:04;17.97;;;17.87;;
20844;SDS011;10583;49.084;8.646;2023-05-21T00:07:35;17.23;;;17.13;;
20844;SDS011;10583;49.084;8.646;2023-05-21T00:10:02;18.03;;;17.93;;
20844;SDS011;10583;49.084;8.646;2023-05-21T00:12:30;17.20;;;17.10;;
20844;SDS011;10583;49.084;8.646;2023-05-21T00:14:57;18.90;;;18.80;;
20844;SDS011;10583;49.084;8.646;2023-05-21T00:17:25;18.40;;;18.30;;
20844;SDS011;10583;49.084;8.646;2023-05-21T00:19:52;17.33;;;17.23;;
20844;SDS011;10583;49.084;8.646;2023-05-21T00:22:20;17.40;;;17.30;;
20844;SDS011;10583;49.084;8.646;2023-05-21T00:24:47;17.53;;;17.43;;
20844;SDS011;10583;49.084;8.646;2023-05-21T00:27:14;17.60;;;17.50;;
20844;SDS011;10583;49.084;8.646;2023-05-21T00:29:43;18.33;;;18.23;;
20844;SDS011;10583;49.084;8.646;2023-05-21T00:32:10;18.20;;;18.10;;
20844;SDS011;10583;49.084;8.646;2023-05-21T00:34:37;18.20;;;18.10;;
20844;SDS011;10583;49.084;8.646;2023-05-21T00:37:03;18.10;;;18.00;;
20844;SDS011;10583;49.084;8.646;2023-05-21T00:39:30;18.50;;;18.40;;
20844;SDS011;10583;49.084;8.646;2023-05-21T00:41:57;17.93;;;17.83;;
20844;SDS011;10583;49.084;8.646;2023-05-21T00:44:24;17.33;;;17.23;;
20844;SDS011;10583;49.084;8.646;2023-05-21T00:46:53;17.40;;;17.30;;
20844;SDS011;10583;49.084;8.646;2023-05-21T00:49:20;19.00;;;18.90;;
20844;SDS011;10583;49.084;8.646;2023-05-21T00:51:48;17.40;;;17.30;;
20844;SDS011;10583;49.084;8.646;2023-05-21T00:54:15;18.47;;;18.37;;
20844;SDS011;10583;49.084;8.646;2023-05-21T00:56:42;18.30;;;18.20;;
20844;SDS011;10583;49.084;8.646;2023-05-21T00:59:09;18.37;;;18.27;;
20844;SDS011;10583;49.084;8.646;2023-05-21T01:01:36;18.70;;;18.60;;
20844;SDS011;10583;49.084;8.646;2023-05-21T01:04:05;19.37;;;19.27;;
20844;SDS011;10583;49.084;8.646;2023-05-21T01:06:33;19.47;;;19.37;;
20844;SDS011;10583;49.084;8.646;2023-05-21T01:09:00;18.90;;;18.80;;
20844;SDS011;10583;49.084;8.646;2023-05-21T01:11:35;18.10;;;18.00;;
20844;SDS011;10583;49.084;8.646;2023-05-21T01:14:05;18.07;;;17.97;;
20844;SDS011;10583;49.084;8.646;2023-05-21T01:16:34;18.03;;;17.93;;
20844;SDS011;10583;49.084;8.646;2023-05-21T01:19:02;20.00;;;19.90;;
20844;SDS011;10583;49.084;8.646;2023-05-21T01:21:34;18.80;;;18.70;;
20844;SDS011;10583;49.084;8.646;2023-05-21T01:24:05;19.17;;;19.07;;
20844;SDS011;10583;49.084;8.646;2023-05-21T01:26:32;20.07;;;19.97;;
20844;SDS011;10583;49.084;8.646;2023-05-21T01:29:02;19.53;;;19.43;;
20844;SDS011;10583;49.084;8.646;2023-05-21T01:31:33;19.17;;;19.07;;
20844;SDS011;10583;49.084;8.646;2023-05-21T01:34:07;20.43;;;20.33;;
20844;SDS011;10583;49.084;8.646;2023-05-21T01:36:37;18.87;;;18.77;;
20844;SDS011;10583;49.084;8.646;2023-05-21T01:39:12;18.57;;;18.47;;
20844;SDS011;10583;49.084;8.646;2023-05-21T01:41:44;19.83;;;19.73;;
20844;SDS011;10583;49.084;8.646;2023-05-21T01:44:11;18.93;;;18.83;;
20844;SDS011;10583;49.084;8.646;2023-05-21T01:46:42;19.30;;;19.20;;
20844;SDS011;10583;49.084;8.646;2023-05-21T01:49:09;19.73;;;19.63;;
20844;SDS011;10583;49.084;8.646;2023-05-21T01:51:36;19.43;;;19.33;;
20844;SDS011;10583;49.084;8.646;2023-05-21T01:54:04;18.10;;;18.00;;
20844;SDS011;10583;49.084;8.646;2023-05-21T01:56:32;19.03;;;18.93;;
20844;SDS011;10583;49.084;8.646;2023-05-21T01:59:01;19.53;;;19.43;;
20844;SDS011;10583;49.084;8.646;2023-05-21T02:01:28;17.83;;;17.73;;
20844;SDS011;10583;49.084;8.646;2023-05-21T02:03:55;19.83;;;19.73;;
20844;SDS011;10583;49.084;8.646;2023-05-21T02:06:21;17.90;;;17.80;;
20844;SDS011;10583;49.084;8.646;2023-05-21T02:08:48;18.53;;;18.43;;
20844;SDS011;10583;49.084;8.646;2023-05-21T02:11:15;18.70;;;18.60;;
20844;SDS011;10583;49.084;8.646;2023-05-21T02:13:44;18.00;;;17.90;;
20844;SDS011;10583;49.084;8.646;2023-05-21T02:16:10;19.20;;;19.10;;
20844;SDS011;10583;49.084;8.646;2023-05-21T02:18:38;18.63;;;18.53;;
20844;SDS011;10583;49.084;8.646;2023-05-21T02:21:07;18.97;;;18.87;;
20844;SDS011;10583;49.084;8.646;2023-05-21T02:23:34;18.80;;;18.70;;
20844;SDS011;10583;49.084;8.646;2023-05-21T02:26:01;19.27;;;19.17;;
20844;SDS011;10583;49.084;8.646;2023-05-21T02:28:27;19.00;;;18.90;;
20844;SDS011;10583;49.084;8.646;2023-05-21T02:30:56;19.47;;;19.37;;
20844;SDS011;10583;49.084;8.646;2023-05-21T02:33:22;18.73;;;18.63;;
20844;SDS011;10583;49.084;8.646;2023-05-21T02:35:50;18.60;;;18.50;;
20844;SDS011;10583;49.084;8.646;2023-05-21T02:38:16;19.20;;;19.10;;
20844;SDS011;10583;49.084;8.646;2023-05-21T02:40:47;19.50;;;19.40;;
20844;SDS011;10583;49.084;8.646;2023-05-21T02:43:14;19.27;;;19.17;;
20844;SDS011;10583;49.084;8.646;2023-05-21T02:45:41;19.33;;;19.23;;
20844;SDS011;10583;49.084;8.646;2023-05-21T02:48:09;19.20;;;19.10;;
20844;SDS011;10583;49.084;8.646;2023-05-21T02:50:36;20.13;;;20.03;;
20844;SDS011;10583;49.084;8.646;2023-05-21T02:53:03;19.80;;;19.70;;
20844;SDS011;10583;49.084;8.646;2023-05-21T02:55:30;19.90;;;19.80;;
20844;SDS011;10583;49.084;8.646;2023-05-21T02:57:56;19.60;;;19.50;;
20844;SDS011;10583;49.084;8.646;2023-05-21T03:00:23;20.17;;;20.07;;
20844;SDS011;10583;49.084;8.646;2023-05-21T03:02:50;21.17;;;21.07;;
20844;SDS011;10583;49.084;8.646;2023-05-21T03:05:18;21.83;;;21.73;;
20844;SDS011;10583;49.084;8.646;2023-05-21T03:07:45;19.67;;;19.57;;
20844;SDS011;10583;49.084;8.646;2023-05-21T03:10:11;20.40;;;20.30;;
20844;SDS011;10583;49.084;8.646;2023-05-21T03:12:38;18.80;;;18.70;;
20844;SDS011;10583;49.084;8.646;2023-05-21T03:15:05;19.93;;;19.83;;
20844;SDS011;10583;49.084;8.646;2023-05-21T03:17:32;20.03;;;19.93;;
20844;SDS011;10583;49.084;8.646;2023-05-21T03:19:59;19.70;;;19.60;;
20844;SDS011;10583;49.084;8.646;2023-05-21T03:22:27;19.73;;;19.63;;
20844;SDS011;10583;49.084;8.646;2023-05-21T03:24:53;20.70;;;20.60;;
20844;SDS011;10583;49.084;8.646;2023-05-21T03:27:23;20.60;;;20.50;;
20844;SDS011;10583;49.084;8.646;2023-05-21T03:29:50;19.33;;;19.23;;
20844;SDS011;10583;49.084;8.646;2023-05-21T03:32:19;18.80;;;18.70;;
20844;SDS011;10583;49.084;8.646;2023-05-21T03:34:45;19.10;;;19.00;;
20844;SDS011;10583;49.084;8.646;2023-05-21T03:37:12;19.73;;;19.63;;
20844;SDS011;10583;49.084;8.646;2023-05-21T03:39:40;19.50;;;19.40;;
20844;SDS011;10583;49.084;8.646;2023-05-21T03:42:07;18.73;;;18.63;;
20844;SDS011;10583;49.084;8.646;2023-05-21T03:44:33;19.53;;;19.43;;
20844;SDS011;10583;49.084;8.646;2023-05-21T03:47:00;18.87;;;18.77;;
20844;SDS011;10583;49.084;8.646;2023-05-21T03:49:27;17.10;;;17.00;;
20844;SDS011;10583;49.084;8.646;2023-05-21T03:51:53;15.67;;;15.67;;
20844;SDS011;10583;49.084;8.646;2023-05-21T03:54:20;16.90;;;16.80;;
20844;SDS011;10583;49.084;8.646;2023-05-21T03:56:48;16.77;;;16.67;;
20844;SDS011;10583;49.084;8.646;2023-05-21T03:59:15;17.77;;;17.67;;
20844;SDS011;10583;49.084;8.646;2023-05-21T04:01:41;17.97;;;17.87;;
20844;SDS011;10583;49.084;8.646;2023-05-21T04:04:09;18.53;;;18.43;;
20844;SDS011;10583;49.084;8.646;2023-05-21T04:06:36;18.53;;;18.43;;
20844;SDS011;10583;49.084;8.646;2023-05-21T04:09:02;18.73;;;18.63;;
20844;SDS011;10583;49.084;8.646;2023-05-21T04:11:29;18.53;;;18.43;;
20844;SDS011;10583;49.084;8.646;2023-05-21T04:13:57;17.83;;;17.73;;
20844;SDS011;10583;49.084;8.646;2023-05-21T04:16:25;18.50;;;18.40;;
20844;SDS011;10583;49.084;8.646;2023-05-21T04:18:52;19.13;;;19.03;;
20844;SDS011;10583;49.084;8.646;2023-05-21T04:21:20;18.23;;;18.13;;
20844;SDS011;10583;49.084;8.646;2023-05-21T04:23:46;18.80;;;18.70;;
20844;SDS011;10583;49.084;8.646;2023-05-21T04:26:13;17.90;;;17.80;;
20844;SDS011;10583;49.084;8.646;2023-05-21T04:28:40;18.27;;;18.17;;
20844;SDS011;10583;49.084;8.646;2023-05-21T04:31:08;16.87;;;16.77;;
20844;SDS011;10583;49.084;8.646;2023-05-21T04:33:36;17.33;;;17.23;;
20844;SDS011;10583;49.084;8.646;2023-05-21T04:36:06;18.27;;;18.17;;
20844;SDS011;10583;49.084;8.646;2023-05-21T04:38:33;17.80;;;17.70;;
20844;SDS011;10583;49.084;8.646;2023-05-21T04:41:01;17.43;;;17.33;;
20844;SDS011;10583;49.084;8.646;2023-05-21T04:43:29;18.20;;;18.10;;
20844;SDS011;10583;49.084;8.646;2023-05-21T04:45:55;17.47;;;17.37;;
20844;SDS011;10583;49.084;8.646;2023-05-21T04:48:24;18.70;;;18.60;;
20844;SDS011;10583;49.084;8.646;2023-05-21T04:50:51;18.17;;;18.07;;
20844;SDS011;10583;49.084;8.646;2023-05-21T04:53:18;18.33;;;18.23;;
20844;SDS011;10583;49.084;8.646;2023-05-21T04:55:45;18.27;;;18.17;;
20844;SDS011;10583;49.084;8.646;2023-05-21T04:58:12;20.27;;;20.17;;
20844;SDS011;10583;49.084;8.646;2023-05-21T05:00:41;18.50;;;18.40;;
20844;SDS011;10583;49.084;8.646;2023-05-21T05:03:10;19.00;;;18.90;;
20844;SDS011;10583;49.084;8.646;2023-05-21T05:05:39;19.10;;;19.00;;
20844;SDS011;10583;49.084;8.646;2023-05-21T05:08:05;19.60;;;19.50;;
20844;SDS011;10583;49.084;8.646;2023-05-21T05:10:32;18.63;;;18.53;;
20844;SDS011;10583;49.084;8.646;2023-05-21T05:13:00;19.60;;;19.50;;
20844;SDS011;10583;49.084;8.646;2023-05-21T05:15:26;19.87;;;19.77;;
20844;SDS011;10583;49.084;8.646;2023-05-21T05:17:53;19.83;;;19.73;;
20844;SDS011;10583;49.084;8.646;2023-05-21T05:20:20;18.93;;;18.83;;
20844;SDS011;10583;49.084;8.646;2023-05-21T05:22:48;20.03;;;19.93;;
20844;SDS011;10583;49.084;8.646;2023-05-21T05:25:15;18.87;;;18.77;;
20844;SDS011;10583;49.084;8.646;2023-05-21T05:27:42;18.97;;;18.87;;
20844;SDS011;10583;49.084;8.646;2023-05-21T05:30:09;18.90;;;18.80;;
20844;SDS011;10583;49.084;8.646;2023-05-21T05:32:36;19.60;;;19.50;;
20844;SDS011;10583;49.084;8.646;2023-05-21T05:35:03;20.77;;;20.67;;
20844;SDS011;10583;49.084;8.646;2023-05-21T05:37:30;20.80;;;20.70;;
20844;SDS011;10583;49.084;8.646;2023-05-21T05:39:59;20.23;;;20.13;;
20844;SDS011;10583;49.084;8.646;2023-05-21T05:42:26;20.80;;;20.70;;
20844;SDS011;10583;49.084;8.646;2023-05-21T05:44:52;20.40;;;20.30;;
20844;SDS011;10583;49.084;8.646;2023-05-21T05:47:19;19.00;;;18.90;;
20844;SDS011;10583;49.084;8.646;2023-05-21T05:49:46;19.20;;;19.10;;
20844;SDS011;10583;49.084;8.646;2023-05-21T05:52:13;19.43;;;19.33;;
20844;SDS011;10583;49.084;8.646;2023-05-21T05:54:40;21.03;;;20.93;;
20844;SDS011;10583;49.084;8.646;2023-05-21T05:57:08;19.87;;;19.77;;
20844;SDS011;10583;49.084;8.646;2023-05-21T05:59:35;20.03;;;19.93;;
20844;SDS011;10583;49.084;8.646;2023-05-21T06:02:01;21.87;;;21.77;;
20844;SDS011;10583;49.084;8.646;2023-05-21T06:04:28;20.43;;;20.33;;
20844;SDS011;10583;49.084;8.646;2023-05-21T06:06:55;20.07;;;19.97;;
20844;SDS011;10583;49.084;8.646;2023-05-21T06:09:22;19.07;;;18.97;;
20844;SDS011;10583;49.084;8.646;2023-05-21T06:11:49;20.20;;;20.10;;
20844;SDS011;10583;49.084;8.646;2023-05-21T06:14:17;19.70;;;19.60;;
20844;SDS011;10583;49.084;8.646;2023-05-21T06:16:44;20.67;;;20.57;;
20844;SDS011;10583;49.084;8.646;2023-05-21T06:19:10;20.00;;;19.90;;
20844;SDS011;10583;49.084;8.646;2023-05-21T06:21:37;20.50;;;20.40;;
20844;SDS011;10583;49.084;8.646;2023-05-21T06:24:04;19.53;;;19.43;;
20844;SDS011;10583;49.084;8.646;2023-05-21T06:26:31;19.33;;;19.23;;
20844;SDS011;10583;49.084;8.646;2023-05-21T06:28:58;19.63;;;19.53;;
20844;SDS011;10583;49.084;8.646;2023-05-21T06:31:26;18.67;;;18.57;;
20844;SDS011;10583;49.084;8.646;2023-05-21T06:33:52;19.80;;;19.70;;
20844;SDS011;10583;49.084;8.646;2023-05-21T06:36:19;17.93;;;17.83;;
20844;SDS011;10583;49.084;8.646;2023-05-21T06:38:46;18.50;;;18.40;;
20844;SDS011;10583;49.084;8.646;2023-05-21T06:41:13;17.87;;;17.77;;
20844;SDS011;10583;49.084;8.646;2023-05-21T06:43:39;17.30;;;17.20;;
20844;SDS011;10583;49.084;8.646;2023-05-21T06:46:06;19.27;;;19.17;;
20844;SDS011;10583;49.084;8.646;2023-05-21T06:48:34;19.93;;;19.83;;
20844;SDS011;10583;49.084;8.646;2023-05-21T06:51:01;18.37;;;18.27;;
20844;SDS011;10583;49.084;8.646;2023-05-21T06:53:27;17.98;;;17.88;;
20844;SDS011;10583;49.084;8.646;2023-05-21T06:55:54;17.13;;;17.02;;
20844;SDS011;10583;49.084;8.646;2023-05-21T06:58:21;17.52;;;17.42;;
20844;SDS011;10583;49.084;8.646;2023-05-21T07:00:47;16.75;;;16.65;;
20844;SDS011;10583;49.084;8.646;2023-05-21T07:03:14;17.17;;;17.08;;
20844;SDS011;10583;49.084;8.646;2023-05-21T07:05:42;16.35;;;16.25;;
20844;SDS011;10583;49.084;8.646;2023-05-21T07:08:09;15.70;;;15.60;;
20844;SDS011;10583;49.084;8.646;2023-05-21T07:10:36;14.00;;;14.00;;
20844;SDS011;10583;49.084;8.646;2023-05-21T07:13:02;14.10;;;14.10;;
20844;SDS011;10583;49.084;8.646;2023-05-21T07:15:29;15.90;;;15.80;;
20844;SDS011;10583;49.084;8.646;2023-05-21T07:17:56;16.98;;;16.88;;
20844;SDS011;10583;49.084;8.646;2023-05-21T07:20:22;14.85;;;14.85;;
20844;SDS011;10583;49.084;8.646;2023-05-21T07:22:50;13.93;;;13.93;;
20844;SDS011;10583;49.084;8.646;2023-05-21T07:25:17;13.77;;;13.77;;
20844;SDS011;10583;49.084;8.646;2023-05-21T07:27:44;14.98;;;14.90;;
20844;SDS011;10583;49.084;8.646;2023-05-21T07:30:11;14.40;;;14.40;;
20844;SDS011;10583;49.084;8.646;2023-05-21T07:32:39;11.43;;;11.43;;
20844;SDS011;10583;49.084;8.646;2023-05-21T07:35:06;11.52;;;11.52;;
20844;SDS011;10583;49.084;8.646;2023-05-21T07:37:33;11.70;;;11.70;;
20844;SDS011;10583;49.084;8.646;2023-05-21T07:40:01;11.45;;;11.45;;
20844;SDS011;10583;49.084;8.646;2023-05-21T07:42:30;12.10;;;12.10;;
20844;SDS011;10583;49.084;8.646;2023-05-21T07:44:57;11.35;;;11.35;;
20844;SDS011;10583;49.084;8.646;2023-05-21T07:47:24;11.75;;;11.75;;
20844;SDS011;10583;49.084;8.646;2023-05-21T07:49:50;12.18;;;12.18;;
20844;SDS011;10583;49.084;8.646;2023-05-21T07:52:17;12.23;;;12.23;;
20844;SDS011;10583;49.084;8.646;2023-05-21T07:54:44;11.00;;;11.00;;
20844;SDS011;10583;49.084;8.646;2023-05-21T07:57:12;12.30;;;12.30;;
20844;SDS011;10583;49.084;8.646;2023-05-21T07:59:39;12.40;;;12.40;;
20844;SDS011;10583;49.084;8.646;2023-05-21T08:02:06;11.07;;;11.07;;
20844;SDS011;10583;49.084;8.646;2023-05-21T08:04:32;10.75;;;10.75;;
20844;SDS011;10583;49.084;8.646;2023-05-21T08:06:59;11.20;;;11.20;;
20844;SDS011;10583;49.084;8.646;2023-05-21T08:09:26;11.68;;;11.68;;
20844;SDS011;10583;49.084;8.646;2023-05-21T08:11:53;11.13;;;11.13;;
20844;SDS011;10583;49.084;8.646;2023-05-21T08:14:21;11.30;;;11.30;;
20844;SDS011;10583;49.084;8.646;2023-05-21T08:16:48;10.50;;;10.50;;
20844;SDS011;10583;49.084;8.646;2023-05-21T08:19:14;11.00;;;11.00;;
20844;SDS011;10583;49.084;8.646;2023-05-21T08:21:41;9.55;;;9.55;;
20844;SDS011;10583;49.084;8.646;2023-05-21T08:24:08;10.30;;;10.30;;
20844;SDS011;10583;49.084;8.646;2023-05-21T08:26:35;10.38;;;10.38;;
20844;SDS011;10583;49.084;8.646;2023-05-21T08:29:01;9.40;;;9.40;;
20844;SDS011;10583;49.084;8.646;2023-05-21T08:31:29;9.40;;;9.40;;
20844;SDS011;10583;49.084;8.646;2023-05-21T08:33:56;9.63;;;9.63;;
20844;SDS011;10583;49.084;8.646;2023-05-21T08:36:23;9.48;;;9.48;;
20844;SDS011;10583;49.084;8.646;2023-05-21T08:38:49;9.20;;;9.20;;
20844;SDS011;10583;49.084;8.646;2023-05-21T08:41:17;9.60;;;9.60;;
20844;SDS011;10583;49.084;8.646;2023-05-21T08:43:46;10.35;;;10.35;;
20844;SDS011;10583;49.084;8.646;2023-05-21T08:46:13;9.77;;;9.77;;
20844;SDS011;10583;49.084;8.646;2023-05-21T08:48:45;9.45;;;9.45;;
20844;SDS011;10583;49.084;8.646;2023-05-21T08:51:12;10.05;;;10.05;;
20844;SDS011;10583;49.084;8.646;2023-05-21T08:53:39;9.27;;;9.27;;
20844;SDS011;10583;49.084;8.646;2023-05-21T08:56:06;9.52;;;9.52;;
20844;SDS011;10583;49.084;8.646;2023-05-21T08:58:33;9.40;;;9.40;;
20844;SDS011;10583;49.084;8.646;2023-05-21T09:01:02;9.43;;;9.43;;
20844;SDS011;10583;49.084;8.646;2023-05-21T09:03:29;9.27;;;9.27;;
20844;SDS011;10583;49.084;8.646;2023-05-21T09:05:58;9.48;;;9.48;;
20844;SDS011;10583;49.084;8.646;2023-05-21T09:08:26;8.80;;;8.80;;
20844;SDS011;10583;49.084;8.646;2023-05-21T09:10:56;9.63;;;9.63;;
20844;SDS011;10583;49.084;8.646;2023-05-21T09:13:23;9.13;;;9.13;;
20844;SDS011;10583;49.084;8.646;2023-05-21T09:15:51;8.45;;;8.35;;
20844;SDS011;10583;49.084;8.646;2023-05-21T09:18:18;9.18;;;9.18;;
20844;SDS011;10583;49.084;8.646;2023-05-21T09:20:45;8.50;;;8.50;;
20844;SDS011;10583;49.084;8.646;2023-05-21T09:23:15;9.30;;;9.30;;
20844;SDS011;10583;49.084;8.646;2023-05-21T09:25:44;8.68;;;8.68;;
20844;SDS011;10583;49.084;8.646;2023-05-21T09:28:11;8.38;;;8.38;;
20844;SDS011;10583;49.084;8.646;2023-05-21T09:30:42;8.00;;;8.00;;
20844;SDS011;10583;49.084;8.646;2023-05-21T09:33:10;8.13;;;8.13;;
20844;SDS011;10583;49.084;8.646;2023-05-21T09:35:42;8.00;;;8.00;;
20844;SDS011;10583;49.084;8.646;2023-05-21T09:38:10;8.40;;;8.40;;
20844;SDS011;10583;49.084;8.646;2023-05-21T09:40:38;8.15;;;8.15;;
20844;SDS011;10583;49.084;8.646;2023-05-21T09:43:12;7.57;;;7.57;;
20844;SDS011;10583;49.084;8.646;2023-05-21T09:45:41;8.50;;;8.50;;
20844;SDS011;10583;49.084;8.646;2023-05-21T09:48:16;8.10;;;8.10;;
20844;SDS011;10583;49.084;8.646;2023-05-21T09:50:43;8.13;;;8.13;;
20844;SDS011;10583;49.084;8.646;2023-05-21T09:53:10;8.27;;;8.27;;
20844;SDS011;10583;49.084;8.646;2023-05-21T09:55:39;7.78;;;7.78;;
20844;SDS011;10583;49.084;8.646;2023-05-21T09:58:07;8.18;;;8.18;;
20844;SDS011;10583;49.084;8.646;2023-05-21T10:00:36;7.93;;;7.93;;
20844;SDS011;10583;49.084;8.646;2023-05-21T10:03:04;8.38;;;8.38;;
20844;SDS011;10583;49.084;8.646;2023-05-21T10:05:34;7.85;;;7.85;;
20844;SDS011;10583;49.084;8.646;2023-05-21T10:08:03;7.63;;;7.63;;
20844;SDS011;10583;49.084;8.646;2023-05-21T10:10:32;7.20;;;7.20;;
20844;SDS011;10583;49.084;8.646;2023-05-21T10:13:03;8.10;;;8.10;;
20844;SDS011;10583;49.084;8.646;2023-05-21T10:15:33;8.32;;;8.32;;
20844;SDS011;10583;49.084;8.646;2023-05-21T10:18:03;7.57;;;7.57;;
20844;SDS011;10583;49.084;8.646;2023-05-21T10:20:30;7.50;;;7.50;;
20844;SDS011;10583;49.084;8.646;2023-05-21T10:22:58;8.43;;;8.43;;
20844;SDS011;10583;49.084;8.646;2023-05-21T10:25:26;7.93;;;7.93;;
20844;SDS011;10583;49.084;8.646;2023-05-21T10:27:54;7.70;;;7.70;;
20844;SDS011;10583;49.084;8.646;2023-05-21T10:30:23;7.90;;;7.90;;
20844;SDS011;10583;49.084;8.646;2023-05-21T10:32:50;7.15;;;7.15;;
20844;SDS011;10583;49.084;8.646;2023-05-21T10:35:17;7.88;;;7.88;;
20844;SDS011;10583;49.084;8.646;2023-05-21T10:37:44;8.13;;;8.13;;
20844;SDS011;10583;49.084;8.646;2023-05-21T10:40:11;7.85;;;7.85;;
20844;SDS011;10583;49.084;8.646;2023-05-21T10:42:49;7.75;;;7.75;;
20844;SDS011;10583;49.084;8.646;2023-05-21T10:45:35;7.25;;;7.25;;
20844;SDS011;10583;49.084;8.646;2023-05-21T10:48:22;7.82;;;7.82;;
20844;SDS011;10583;49.084;8.646;2023-05-21T10:51:08;8.30;;;8.30;;
20844;SDS011;10583;49.084;8.646;2023-05-21T10:54:03;7.03;;;7.03;;
20844;SDS011;10583;49.084;8.646;2023-05-21T10:56:43;7.03;;;7.03;;
20844;SDS011;10583;49.084;8.646;2023-05-21T10:59:15;7.20;;;7.20;;
20844;SDS011;10583;49.084;8.646;2023-05-21T11:01:55;7.35;;;7.35;;
20844;SDS011;10583;49.084;8.646;2023-05-21T11:04:25;6.97;;;6.97;;
20844;SDS011;10583;49.084;8.646;2023-05-21T11:06:52;6.60;;;6.60;;
20844;SDS011;10583;49.084;8.646;2023-05-21T11:09:20;7.28;;;7.28;;
20844;SDS011;10583;49.084;8.646;2023-05-21T11:11:48;7.35;;;7.35;;
20844;SDS011;10583;49.084;8.646;2023-05-21T11:14:29;7.00;;;7.00;;
20844;SDS011;10583;49.084;8.646;2023-05-21T11:17:00;7.25;;;7.25;;
20844;SDS011;10583;49.084;8.646;2023-05-21T11:19:31;6.65;;;6.65;;
20844;SDS011;10583;49.084;8.646;2023-05-21T11:22:02;6.93;;;6.93;;
20844;SDS011;10583;49.084;8.646;2023-05-21T11:24:31;6.47;;;6.47;;
20844;SDS011;10583;49.084;8.646;2023-05-21T11:26:59;6.80;;;6.80;;
20844;SDS011;10583;49.084;8.646;2023-05-21T11:29:31;6.93;;;6.93;;
20844;SDS011;10583;49.084;8.646;2023-05-21T11:32:06;6.93;;;6.93;;
20844;SDS011;10583;49.084;8.646;2023-05-21T11:34:41;7.00;;;7.00;;
20844;SDS011;10583;49.084;8.646;2023-05-21T11:37:22;6.53;;;6.53;;
20844;SDS011;10583;49.084;8.646;2023-05-21T11:39:54;6.40;;;6.40;;
20844;SDS011;10583;49.084;8.646;2023-05-21T11:42:29;5.93;;;5.93;;
20844;SDS011;10583;49.084;8.646;2023-05-21T11:44:57;6.47;;;6.47;;
20844;SDS011;10583;49.084;8.646;2023-05-21T11:47:27;6.30;;;6.30;;
20844;SDS011;10583;49.084;8.646;2023-05-21T11:49:57;6.35;;;6.35;;
20844;SDS011;10583;49.084;8.646;2023-05-21T11:52:24;6.90;;;6.90;;
20844;SDS011;10583;49.084;8.646;2023-05-21T11:54:51;6.78;;;6.78;;
20844;SDS011;10583;49.084;8.646;2023-05-21T11:57:20;8.23;;;8.23;;
20844;SDS011;10583;49.084;8.646;2023-05-21T11:59:48;6.18;;;6.18;;
20844;SDS011;10583;49.084;8.646;2023-05-21T12:02:16;6.93;;;6.93;;
20844;SDS011;10583;49.084;8.646;2023-05-21T12:04:46;6.50;;;6.50;;
20844;SDS011;10583;49.084;8.646;2023-05-21T12:07:14;6.20;;;6.20;;
20844;SDS011;10583;49.084;8.646;2023-05-21T12:09:43;5.72;;;5.72;;
20844;SDS011;10583;49.084;8.646;2023-05-21T12:12:12;5.70;;;5.70;;
20844;SDS011;10583;49.084;8.646;2023-05-21T12:14:41;6.15;;;6.15;;
20844;SDS011;10583;49.084;8.646;2023-05-21T12:17:09;5.72;;;5.72;;
20844;SDS011;10583;49.084;8.646;2023-05-21T12:19:37;5.90;;;5.90;;
20844;SDS011;10583;49.084;8.646;2023-05-21T12:22:06;6.13;;;6.13;;
20844;SDS011;10583;49.084;8.646;2023-05-21T12:24:33;5.75;;;5.75;;
20844;SDS011;10583;49.084;8.646;2023-05-21T12:27:01;5.70;;;5.70;;
20844;SDS011;10583;49.084;8.646;2023-05-21T12:29:33;6.10;;;6.10;;
20844;SDS011;10583;49.084;8.646;2023-05-21T12:32:02;5.80;;;5.80;;
20844;SDS011;10583;49.084;8.646;2023-05-21T12:34:37;6.03;;;6.03;;
20844;SDS011;10583;49.084;8.646;2023-05-21T12:37:06;5.80;;;5.80;;
20844;SDS011;10583;49.084;8.646;2023-05-21T12:39:37;5.50;;;5.50;;
20844;SDS011;10583;49.084;8.646;2023-05-21T12:42:05;5.80;;;5.80;;
20844;SDS011;10583;49.084;8.646;2023-05-21T12:44:32;5.70;;;5.70;;
20844;SDS011;10583;49.084;8.646;2023-05-21T12:46:58;5.97;;;5.97;;
20844;SDS011;10583;49.084;8.646;2023-05-21T12:49:29;5.72;;;5.72;;
20844;SDS011;10583;49.084;8.646;2023-05-21T12:51:57;5.43;;;5.43;;
20844;SDS011;10583;49.084;8.646;2023-05-21T12:54:28;6.00;;;6.00;;
20844;SDS011;10583;49.084;8.646;2023-05-21T12:56:56;5.85;;;5.85;;
20844;SDS011;10583;49.084;8.646;2023-05-21T12:59:23;5.82;;;5.82;;
20844;SDS011;10583;49.084;8.646;2023-05-21T13:01:50;5.97;;;5.97;;
20844;SDS011;10583;49.084;8.646;2023-05-21T13:04:18;6.20;;;6.20;;
20844;SDS011;10583;49.084;8.646;2023-05-21T13:06:45;6.70;;;6.70;;
20844;SDS011;10583;49.084;8.646;2023-05-21T13:09:12;10.00;;;10.00;;
20844;SDS011;10583;49.084;8.646;2023-05-21T13:11:40;6.50;;;6.50;;
20844;SDS011;10583;49.084;8.646;2023-05-21T13:14:06;8.25;;;8.25;;
20844;SDS011;10583;49.084;8.646;2023-05-21T13:16:33;5.93;;;5.93;;
20844;SDS011;10583;49.084;8.646;2023-05-21T13:19:00;6.50;;;6.50;;
20844;SDS011;10583;49.084;8.646;2023-05-21T13:21:27;5.55;;;5.55;;
20844;SDS011;10583;49.084;8.646;2023-05-21T13:23:53;5.95;;;5.95;;
20844;SDS011;10583;49.084;8.646;2023-05-21T13:26:20;5.30;;;5.30;;
20844;SDS011;10583;49.084;8.646;2023-05-21T13:28:48;5.57;;;5.57;;
20844;SDS011;10583;49.084;8.646;2023-05-21T13:31:15;5.50;;;5.50;;
20844;SDS011;10583;49.084;8.646;2023-05-21T13:33:42;4.93;;;4.93;;
20844;SDS011;10583;49.084;8.646;2023-05-21T13:36:08;5.95;;;5.95;;
20844;SDS011;10583;49.084;8.646;2023-05-21T13:38:36;5.72;;;5.72;;
20844;SDS011;10583;49.084;8.646;2023-05-21T13:41:02;5.60;;;5.60;;
20844;SDS011;10583;49.084;8.646;2023-05-21T13:43:30;5.28;;;5.28;;
20844;SDS011;10583;49.084;8.646;2023-05-21T13:45:58;5.90;;;5.90;;
20844;SDS011;10583;49.084;8.646;2023-05-21T13:48:25;5.47;;;5.47;;
20844;SDS011;10583;49.084;8.646;2023-05-21T13:50:52;5.38;;;5.38;;
20844;SDS011;10583;49.084;8.646;2023-05-21T13:53:19;5.75;;;5.75;;
20844;SDS011;10583;49.084;8.646;2023-05-21T13:55:46;5.53;;;5.53;;
20844;SDS011;10583;49.084;8.646;2023-05-21T13:58:13;5.90;;;5.90;;
20844;SDS011;10583;49.084;8.646;2023-05-21T14:00:39;5.88;;;5.88;;
20844;SDS011;10583;49.084;8.646;2023-05-21T14:03:08;5.75;;;5.75;;
20844;SDS011;10583;49.084;8.646;2023-05-21T14:05:35;6.15;;;6.15;;
20844;SDS011;10583;49.084;8.646;2023-05-21T14:08:02;5.50;;;5.50;;
20844;SDS011;10583;49.084;8.646;2023-05-21T14:10:29;5.68;;;5.68;;
20844;SDS011;10583;49.084;8.646;2023-05-21T14:12:56;6.10;;;6.10;;
20844;SDS011;10583;49.084;8.646;2023-05-21T14:15:23;5.63;;;5.63;;
20844;SDS011;10583;49.084;8.646;2023-05-21T14:17:49;6.05;;;6.05;;
20844;SDS011;10583;49.084;8.646;2023-05-21T14:20:18;6.00;;;6.00;;
20844;SDS011;10583;49.084;8.646;2023-05-21T14:22:45;6.00;;;6.00;;
20844;SDS011;10583;49.084;8.646;2023-05-21T14:25:12;6.18;;;6.18;;
20844;SDS011;10583;49.084;8.646;2023-05-21T14:27:39;5.53;;;5.53;;
20844;SDS011;10583;49.084;8.646;2023-05-21T14:30:06;6.30;;;6.30;;
20844;SDS011;10583;49.084;8.646;2023-05-21T14:32:33;5.70;;;5.70;;
20844;SDS011;10583;49.084;8.646;2023-05-21T14:35:00;6.10;;;6.10;;
20844;SDS011;10583;49.084;8.646;2023-05-21T14:37:29;6.28;;;6.28;;